Millers Tavrn, Virginia
Current Conditions -  °F | °C
As of 1:15 PM on Thursday 30 Oct 2014 (Local Time) from KXSA Reporting Station
Clear Clear  
Wind Chill: 61°   Ceiling: Unl
Heat Index: 61°   Visibility: 10mi
Dew Point: 33°   Wind: 5mph
Humidity: 35%   Direction: 20°NNE
Pressure: 30.05"   Gusts: NA
Location:  37.8283°N, 76.9455°W
Report Text: KXSA 301715Z AUTO 02004KT 10SM CLR 16/01 A3005 RMK AO2 T01590005
Loading
Personal Weather Stations






























Interactive Weather Map
Tropical Storm Tracking
New forecast layout! Learn more

10-Day Weather Forecast

Advertisements
Track Severe Weather on mobile